This is the latest recevied weather packets stored in our database for station/object KSUZ. If no packets are shown the sender has not sent any weather packets the latest 10 day(s).
| Time | Temp. | Humidity | Pressure | Rain* | Wind** | Luminosity | Snow |
|---|---|---|---|---|---|---|---|
| 1778301225 | 15.56° C | 100% | 1011.9 hPa | - | - | - | - |
| 1778300625 | 15.56° C | 100% | 1011.9 hPa | - | - | - | - |
| 1778300024 | 15.56° C | 93% | 1012.2 hPa | - | - | - | - |
| 1778299421 | 15.56° C | 93% | 1012.2 hPa | - | - | - | - |
| 1778298824 | 15.56° C | 100% | 1012.2 hPa | - | - | - | - |
| 1778298224 | 15.56° C | 100% | 1012.2 hPa | - | - | - | - |
| 1778297626 | 15.56° C | 93% | 1011.5 hPa | - | - | - | - |
| 1778297026 | 15.56° C | 93% | 1011.5 hPa | - | - | - | - |
| 1778296427 | 15.56° C | 93% | 1011.2 hPa | - | - | - | - |
| 1778295826 | 15.56° C | 93% | 1011.2 hPa | - | - | - | - |
| 1778295226 | 16.67° C | 88% | 1010.5 hPa | - | - | - | - |
| 1778294622 | 16.67° C | 88% | 1010.5 hPa | - | - | - | - |
| 1778294025 | 15.56° C | 93% | 1010.2 hPa | - | - | - | - |
| 1778293424 | 15.56° C | 93% | 1010.2 hPa | - | - | - | - |
| 1778292822 | 16.67° C | 88% | 1009.8 hPa | - | - | - | - |
| 1778292222 | 16.67° C | 88% | 1009.8 hPa | - | - | - | - |
| 1778291621 | 17.78° C | 82% | 1009.8 hPa | - | - | - | - |
| 1778291026 | 17.78° C | 82% | 1009.8 hPa | - | - | - | - |
| 1778290425 | 20.56° C | 64% | 1009.8 hPa | - | - | - | - |
| 1778289828 | 20.56° C | 64% | 1009.8 hPa | - | - | - | - |
| 1778289221 | 20.56° C | 64% | 1009.5 hPa | - | - | - | - |
| 1778288621 | 20.56° C | 64% | 1009.5 hPa | - | - | - | - |
| 1778288019 | 21.67° C | 56% | 1009.5 hPa | - | - | - | - |
| 1778287424 | 21.67° C | 56% | 1009.5 hPa | - | - | - | - |
| 1778286819 | 22.78° C | 53% | 1009.8 hPa | - | - | - | - |
* Rain since midnight (hover to see other rain measurements)
** Current wind speed in m/s (hover to see current wind gust speed)